Time;durP1;ratioP1;P1;durP2;ratioP2;P2;SDS_P1;SDS_P2;PMS_P1;PMS_P2;Temp;Humidity;BMP_temperature;BMP_pressure;BME280_temperature;BME280_humidity;BME280_pressure;Samples;Min_cycle;Max_cycle;Signal;HPM_P1;HPM_P2
2023/01/02 00:01:48;;;;;;;1.73;1.63;;;;;;;4.48;92.09;100594.31;5113697;28;20040;-67
2023/01/02 00:04:17;;;;;;;1.45;1.25;;;;;;;4.51;91.79;100589.38;5114013;28;20089;-67
2023/01/02 00:06:46;;;;;;;2.07;1.70;;;;;;;4.49;92.14;100584.25;5114041;28;20039;-67
2023/01/02 00:09:17;;;;;;;3.90;3.50;;;;;;;4.48;92.18;100586.75;5114024;28;20379;-67
2023/01/02 00:11:46;;;;;;;2.50;1.42;;;;;;;4.47;92.33;100585.00;5113985;28;20071;-67
2023/01/02 00:14:16;;;;;;;1.45;1.35;;;;;;;4.47;92.29;100575.75;5113668;28;20071;-67
2023/01/02 00:16:45;;;;;;;2.58;2.38;;;;;;;4.45;92.33;100571.44;5113635;28;20043;-67
2023/01/02 00:19:13;;;;;;;8.73;4.10;;;;;;;4.43;92.12;100578.13;5113951;28;20031;-67
2023/01/02 00:21:42;;;;;;;7.22;1.98;;;;;;;4.40;92.48;100578.84;5113584;28;20036;-67
2023/01/02 00:24:11;;;;;;;2.27;2.07;;;;;;;4.37;92.63;100568.63;5113512;28;20047;-67
2023/01/02 00:26:40;;;;;;;0.68;0.68;;;;;;;4.34;92.25;100567.66;5115192;28;20109;-67
2023/01/02 00:29:09;;;;;;;1.40;1.30;;;;;;;4.26;92.21;100569.91;5117462;28;20039;-67
2023/01/02 00:31:40;;;;;;;1.88;1.77;;;;;;;4.14;91.89;100568.53;5117464;28;20032;-67
2023/01/02 00:34:09;;;;;;;3.95;2.30;;;;;;;4.06;92.17;100566.59;5117311;27;20078;-67
2023/01/02 00:36:37;;;;;;;3.07;2.80;;;;;;;4.00;92.24;100562.97;5117901;28;20374;-67
2023/01/02 00:39:06;;;;;;;0.95;0.95;;;;;;;3.94;92.51;100556.00;5117549;28;20490;-67
2023/01/02 00:41:35;;;;;;;2.07;1.67;;;;;;;3.94;91.83;100550.94;5117427;28;20054;-67
2023/01/02 00:44:04;;;;;;;0.70;0.70;;;;;;;3.92;92.00;100539.94;5117393;28;20127;-67
2023/01/02 00:46:32;;;;;;;2.23;2.07;;;;;;;3.84;92.29;100537.94;5117017;28;20097;-67
2023/01/02 00:49:03;;;;;;;1.60;1.50;;;;;;;3.83;92.26;100547.16;5117136;28;20035;-66
2023/01/02 00:51:32;;;;;;;2.50;2.10;;;;;;;3.86;92.61;100547.25;5117340;28;20079;-67
2023/01/02 00:54:01;;;;;;;2.43;2.17;;;;;;;3.88;92.18;100554.91;5116972;28;20085;-67
2023/01/02 00:56:29;;;;;;;1.30;1.13;;;;;;;3.77;91.79;100541.84;5116929;28;20039;-67
2023/01/02 00:58:58;;;;;;;1.33;1.23;;;;;;;3.76;92.22;100540.13;5116902;28;20119;-67
2023/01/02 01:01:27;;;;;;;1.13;1.02;;;;;;;3.67;91.81;100544.78;5117160;27;20062;-67
2023/01/02 01:03:56;;;;;;;0.83;0.83;;;;;;;3.57;91.44;100555.34;5116724;28;20047;-66
2023/01/02 01:06:27;;;;;;;1.65;1.55;;;;;;;3.57;92.11;100551.94;5116623;28;20283;-67
2023/01/02 01:08:55;;;;;;;1.15;1.13;;;;;;;3.57;91.63;100557.88;5117558;28;20051;-67
2023/01/02 01:11:24;;;;;;;1.63;1.53;;;;;;;3.58;91.65;100559.56;5116684;28;20039;-68
2023/01/02 01:13:53;;;;;;;1.25;1.20;;;;;;;3.52;91.44;100561.84;5116540;28;20123;-67
2023/01/02 01:16:22;;;;;;;2.00;1.80;;;;;;;3.42;91.59;100558.88;5116545;28;20138;-68
2023/01/02 01:18:55;;;;;;;2.13;1.42;;;;;;;3.41;91.46;100550.44;5116455;28;20051;-67
2023/01/02 01:21:26;;;;;;;2.63;2.00;;;;;;;3.43;91.25;100553.91;5116802;27;20043;-67
2023/01/02 01:23:56;;;;;;;1.75;1.65;;;;;;;3.40;91.32;100548.72;5116699;28;20108;-67
2023/01/02 01:26:25;;;;;;;4.07;1.52;;;;;;;3.38;90.80;100550.34;5116155;28;20120;-67
2023/01/02 01:28:55;;;;;;;1.58;1.48;;;;;;;3.37;91.65;100544.41;5115329;28;20485;-67
2023/01/02 01:31:24;;;;;;;6.50;2.38;;;;;;;3.37;91.10;100539.38;5116246;28;20035;-67
2023/01/02 01:33:53;;;;;;;7.93;4.07;;;;;;;3.37;90.98;100548.59;5116397;28;20044;-67
2023/01/02 01:36:24;;;;;;;0.80;0.80;;;;;;;3.37;91.68;100548.59;5115980;28;20048;-67
2023/01/02 01:38:54;;;;;;;1.55;1.17;;;;;;;3.38;91.34;100551.16;5116406;28;20268;-67
2023/01/02 01:41:25;;;;;;;4.63;2.63;;;;;;;3.34;91.35;100544.28;5115135;28;20393;-67
2023/01/02 01:43:56;;;;;;;0.90;0.90;;;;;;;3.28;91.81;100546.56;5116032;28;20074;-67
2023/01/02 01:46:30;;;;;;;0.50;0.50;;;;;;;3.29;91.02;100549.91;5116065;28;20032;-67
2023/01/02 01:49:04;;;;;;;0.45;0.45;;;;;;;3.29;91.43;100539.84;5116010;27;20467;-68
2023/01/02 01:51:38;;;;;;;1.55;1.23;;;;;;;3.24;91.32;100536.25;5116294;28;20043;-67
2023/01/02 01:54:12;;;;;;;3.40;2.65;;;;;;;3.22;90.97;100532.81;5116407;28;20434;-67
2023/01/02 01:56:46;;;;;;;2.63;1.63;;;;;;;3.22;91.00;100525.25;5115751;28;20063;-67
2023/01/02 01:59:16;;;;;;;1.60;1.50;;;;;;;3.18;90.72;100521.75;5115978;27;20138;-67
2023/01/02 02:01:48;;;;;;;1.08;1.02;;;;;;;3.16;91.39;100513.25;5115611;28;20081;-67
2023/01/02 02:04:19;;;;;;;2.58;2.35;;;;;;;3.14;91.27;100514.81;5116140;28;20044;-67
2023/01/02 02:06:50;;;;;;;1.40;1.33;;;;;;;3.12;90.76;100518.94;5115415;28;20122;-67
2023/01/02 02:09:27;;;;;;;1.38;1.27;;;;;;;3.11;91.27;100519.78;5115713;28;20035;-67
2023/01/02 02:11:56;;;;;;;0.90;0.90;;;;;;;3.06;90.87;100520.38;5115511;28;20052;-67
2023/01/02 02:14:25;;;;;;;2.15;1.90;;;;;;;2.97;90.67;100525.03;5115347;28;20043;-67
2023/01/02 02:17:01;;;;;;;0.40;0.40;;;;;;;2.90;90.47;100523.91;5115266;28;20127;-67
2023/01/02 02:19:58;;;;;;;2.88;2.67;;;;;;;2.89;90.87;100516.25;5115404;28;20043;-67
2023/01/02 02:22:56;;;;;;;1.25;1.17;;;;;;;2.81;90.66;100513.41;5102798;28;20039;-67
2023/01/02 02:25:46;;;;;;;1.03;1.03;;;;;;;2.81;90.36;100512.56;5115362;27;20043;-66
2023/01/02 02:28:48;;;;;;;0.70;0.70;;;;;;;2.73;90.34;100505.50;5115001;28;20043;-67
2023/01/02 02:31:28;;;;;;;1.02;1.00;;;;;;;2.73;90.25;100502.16;5115382;28;20101;-67
2023/01/02 02:34:00;;;;;;;0.73;0.73;;;;;;;2.71;90.53;100497.03;5115042;28;20048;-67
2023/01/02 02:36:37;;;;;;;3.03;2.30;;;;;;;2.71;90.33;100491.97;5114944;28;20040;-67
2023/01/02 02:39:13;;;;;;;1.70;1.60;;;;;;;2.71;90.94;100491.97;5115210;28;20059;-67
2023/01/02 02:41:51;;;;;;;1.17;1.10;;;;;;;2.68;90.48;100491.88;5115512;28;20055;-67
2023/01/02 02:44:31;;;;;;;2.33;1.90;;;;;;;2.62;90.85;100486.53;5115120;28;20061;-67
2023/01/02 02:47:03;;;;;;;;;;;;;;;2.63;90.82;100483.25;5115323;28;20050;-66
2023/01/02 02:49:48;;;;;;;1.08;1.02;;;;;;;2.63;90.29;100487.41;5113990;28;19920;-67
2023/01/02 02:52:24;;;;;;;1.73;1.58;;;;;;;2.59;90.85;100485.56;5115024;28;20048;-67
2023/01/02 02:55:00;;;;;;;1.38;1.27;;;;;;;2.53;90.20;100481.13;5114642;28;20043;-66
2023/01/02 02:57:30;;;;;;;1.98;1.77;;;;;;;2.43;89.89;100470.56;5115053;28;20043;-67
2023/01/02 02:59:59;;;;;;;4.18;1.90;;;;;;;2.39;89.76;100472.09;5114861;28;20581;-66
2023/01/02 03:02:29;;;;;;;3.00;2.80;;;;;;;2.44;90.32;100470.63;5114515;28;20040;-66
2023/01/02 03:05:03;;;;;;;1.70;1.60;;;;;;;2.44;89.85;100470.63;5114465;28;20044;-66
2023/01/02 03:07:39;;;;;;;1.23;1.15;;;;;;;2.33;89.85;100460.84;5114565;28;20116;-66
2023/01/02 03:10:21;;;;;;;1.17;1.10;;;;;;;2.39;90.50;100477.13;5114395;28;20088;-66
2023/01/02 03:12:58;;;;;;;0.43;0.43;;;;;;;2.35;90.50;100469.38;5114389;28;20085;-67
2023/01/02 03:15:34;;;;;;;1.35;1.25;;;;;;;2.37;89.99;100468.66;5114651;28;20554;-66
2023/01/02 03:18:18;;;;;;;0.80;0.80;;;;;;;2.37;89.58;100473.69;5114263;28;20086;-67
2023/01/02 03:20:56;;;;;;;3.00;1.75;;;;;;;2.37;90.39;100463.63;5114226;28;20047;-66
2023/01/02 03:23:27;;;;;;;1.05;1.02;;;;;;;2.34;89.94;100448.34;5114505;28;20071;-66
2023/01/02 03:25:58;;;;;;;0.98;0.98;;;;;;;2.33;89.76;100451.66;5113944;28;20085;-67
2023/01/02 03:28:27;;;;;;;0.80;0.80;;;;;;;2.34;89.98;100455.91;5114395;28;20189;-66
2023/01/02 03:30:57;;;;;;;;;;;;;;;2.28;89.40;100458.16;5114691;28;20044;-66
2023/01/02 03:33:33;;;;;;;2.42;1.95;;;;;;;2.30;90.15;100456.59;5114071;28;20312;-67
2023/01/02 03:36:06;;;;;;;7.70;3.50;;;;;;;2.33;89.72;100455.81;5114113;28;20092;-67
2023/01/02 03:38:40;;;;;;;0.82;0.82;;;;;;;2.27;90.24;100453.91;5113995;28;20055;-66
2023/01/02 03:41:12;;;;;;;29.55;1.90;;;;;;;2.18;89.64;100456.03;5114318;28;20065;-67
2023/01/02 03:43:44;;;;;;;1.60;1.50;;;;;;;2.14;89.38;100454.16;5113988;28;20035;-67
2023/01/02 03:46:22;;;;;;;0.73;0.73;;;;;;;2.13;89.48;100449.06;5114183;28;20112;-66
2023/01/02 03:48:57;;;;;;;2.03;1.55;;;;;;;2.12;89.65;100448.19;5113891;28;20093;-67
2023/01/02 03:51:26;;;;;;;2.60;2.03;;;;;;;2.13;90.45;100447.41;5113868;28;20046;-67
2023/01/02 03:53:55;;;;;;;2.70;2.03;;;;;;;2.15;89.81;100445.81;5114389;28;20043;-66
2023/01/02 03:56:31;;;;;;;2.22;2.05;;;;;;;2.02;89.46;100448.56;5113851;28;20560;-67
2023/01/02 03:59:09;;;;;;;6.88;2.50;;;;;;;2.00;89.81;100450.16;5113928;28;20051;-67
2023/01/02 04:01:42;;;;;;;2.90;1.52;;;;;;;2.03;89.63;100445.25;5118279;28;20481;-66
2023/01/02 04:04:19;;;;;;;1.17;1.08;;;;;;;2.04;90.13;100454.53;5117913;28;20039;-66
2023/01/02 04:06:55;;;;;;;1.63;1.52;;;;;;;1.99;90.11;100450.97;5117830;28;20036;-66
2023/01/02 04:09:28;;;;;;;4.10;2.75;;;;;;;1.97;90.32;100455.03;5117812;28;20102;-66
2023/01/02 04:12:02;;;;;;;3.38;1.48;;;;;;;1.96;90.23;100453.34;5117760;28;20089;-67
2023/01/02 04:14:38;;;;;;;2.97;2.78;;;;;;;1.96;89.76;100453.34;5118056;28;20078;-66
2023/01/02 04:17:08;;;;;;;1.45;1.25;;;;;;;1.92;90.28;100456.50;5118026;28;20043;-66
2023/01/02 04:19:43;;;;;;;1.83;1.73;;;;;;;1.95;89.70;100466.69;5117782;28;20100;-66
2023/01/02 04:22:16;;;;;;;2.45;2.25;;;;;;;1.99;90.13;100461.03;5117668;27;20054;-67
2023/01/02 04:24:52;;;;;;;1.70;1.52;;;;;;;1.91;90.47;100462.31;5117853;28;20091;-67
2023/01/02 04:27:27;;;;;;;1.52;1.42;;;;;;;1.91;89.78;100462.31;5117295;28;20397;-66
2023/01/02 04:29:56;;;;;;;3.30;3.00;;;;;;;1.91;90.39;100454.78;5117665;28;20417;-66
2023/01/02 04:32:30;;;;;;;2.72;2.35;;;;;;;1.80;89.83;100453.44;5117342;28;20048;-66
2023/01/02 04:35:05;;;;;;;2.28;2.08;;;;;;;1.80;89.89;100458.47;5117670;28;20047;-66
2023/01/02 04:37:37;;;;;;;1.80;1.67;;;;;;;1.80;89.90;100456.78;5117466;28;20047;-67
2023/01/02 04:40:11;;;;;;;2.75;1.77;;;;;;;1.81;90.68;100457.66;5117235;28;20105;-67
2023/01/02 04:42:40;;;;;;;1.58;1.48;;;;;;;1.80;90.15;100458.47;5115970;28;20101;-67
2023/01/02 04:45:10;;;;;;;0.60;0.60;;;;;;;1.76;89.78;100454.06;5117698;28;20367;-66
2023/01/02 04:47:38;;;;;;;3.15;2.90;;;;;;;1.73;89.69;100453.91;5117300;28;20481;-66
2023/01/02 04:50:10;;;;;;;1.50;1.42;;;;;;;1.73;90.04;100444.72;5116993;28;20498;-67
2023/01/02 04:52:39;;;;;;;1.88;1.70;;;;;;;1.74;90.20;100455.66;5117297;28;20130;-66
2023/01/02 04:55:09;;;;;;;1.15;0.90;;;;;;;1.71;90.19;100445.44;5116901;28;20035;-67
2023/01/02 04:57:38;;;;;;;1.83;1.73;;;;;;;1.69;89.95;100457.94;5116894;28;20047;-66
2023/01/02 05:00:08;;;;;;;3.15;2.45;;;;;;;1.68;89.53;100455.38;5116878;28;20048;-66
2023/01/02 05:02:39;;;;;;;1.48;1.33;;;;;;;1.68;90.11;100458.72;5117302;28;20133;-66
2023/01/02 05:05:10;;;;;;;1.25;1.15;;;;;;;1.72;90.53;100460.63;5117113;28;20108;-67
2023/01/02 05:07:39;;;;;;;2.42;2.22;;;;;;;1.79;90.28;100459.25;5116700;28;20048;-67
2023/01/02 05:10:09;;;;;;;2.97;2.78;;;;;;;1.81;90.69;100452.63;5117571;28;20502;-67
2023/01/02 05:12:39;;;;;;;2.33;1.92;;;;;;;1.79;89.67;100449.19;5116007;28;20068;-67
2023/01/02 05:15:09;;;;;;;1.35;1.27;;;;;;;1.83;89.96;100440.97;5117191;28;20506;-67
2023/01/02 05:17:40;;;;;;;1.63;1.52;;;;;;;1.82;90.58;100449.31;5116520;28;20043;-67
2023/01/02 05:20:12;;;;;;;2.47;1.98;;;;;;;1.78;90.40;100447.44;5116464;28;20039;-67
2023/01/02 05:25:22;;;;;;;4.75;3.33;;;;;;;1.78;89.78;100433.22;5116409;28;20505;-67
2023/01/02 05:27:53;;;;;;;3.37;3.07;;;;;;;1.84;90.41;100437.69;5116392;28;20512;-67
2023/01/02 05:30:23;;;;;;;2.60;1.88;;;;;;;1.67;90.53;100400.81;5116290;28;20097;-67
2023/01/02 05:32:53;;;;;;;1.25;1.15;;;;;;;1.86;89.90;100436.09;5116535;28;20278;-66
2023/01/02 05:35:24;;;;;;;1.30;1.20;;;;;;;1.84;90.06;100437.69;5116257;28;20035;-68
2023/01/02 05:38:00;;;;;;;0.80;0.80;;;;;;;1.83;90.78;100441.84;5114657;28;20090;-66
2023/01/02 05:40:29;;;;;;;1.67;1.57;;;;;;;1.81;90.24;100448.47;5116081;28;20098;-66
2023/01/02 05:42:58;;;;;;;1.98;1.42;;;;;;;1.88;90.43;100444.56;5115974;28;20123;-66
2023/01/02 05:45:27;;;;;;;3.53;3.22;;;;;;;1.95;90.04;100444.03;5116795;28;20127;-66
2023/01/02 05:47:55;;;;;;;2.50;1.90;;;;;;;1.97;90.67;100439.94;5115984;28;20040;-66
2023/01/02 05:50:26;;;;;;;1.90;1.80;;;;;;;1.99;90.09;100440.91;5115899;28;20067;-66
2023/01/02 05:52:55;;;;;;;7.45;4.07;;;;;;;2.03;90.72;100445.25;5115835;28;20142;-67
2023/01/02 05:55:24;;;;;;;;;;;;;;;2.07;90.73;100442.09;5116227;28;20112;-67
2023/01/02 05:57:55;;;;;;;4.05;3.13;;;;;;;2.08;90.18;100442.94;5116087;28;19919;-66
2023/01/02 06:00:24;;;;;;;2.10;1.30;;;;;;;2.10;90.58;100443.88;5115764;28;20067;-66
2023/01/02 06:02:54;;;;;;;1.75;1.63;;;;;;;2.09;90.78;100444.69;5115862;28;20469;-66
2023/01/02 06:05:23;;;;;;;1.67;1.58;;;;;;;2.11;91.10;100449.00;5115550;28;20501;-67
2023/01/02 06:07:53;;;;;;;2.33;1.58;;;;;;;2.14;90.59;100444.09;5115438;28;20092;-67
2023/01/02 06:10:22;;;;;;;1.27;1.17;;;;;;;2.16;90.50;100447.53;5115558;28;20054;-66
2023/01/02 06:12:51;;;;;;;2.63;2.42;;;;;;;2.12;90.54;100450.72;5115657;28;20047;-67
2023/01/02 06:15:20;;;;;;;4.57;2.42;;;;;;;2.09;91.56;100447.22;5115694;28;20067;-66
2023/01/02 06:17:49;;;;;;;2.23;2.07;;;;;;;2.13;90.57;100457.47;5115331;28;20078;-67
2023/01/02 06:20:17;;;;;;;2.00;1.90;;;;;;;2.11;91.31;100450.66;5115565;28;20142;-66
2023/01/02 06:22:46;;;;;;;4.50;3.23;;;;;;;2.15;91.06;100444.94;5115508;28;20447;-66
2023/01/02 06:25:17;;;;;;;1.80;1.70;;;;;;;2.18;91.53;100445.97;5115635;28;20439;-66
2023/01/02 06:27:46;;;;;;;2.17;1.98;;;;;;;2.20;91.52;100443.50;5114824;28;20040;-65
2023/01/02 06:30:15;;;;;;;2.75;2.55;;;;;;;2.21;91.47;100446.06;5115033;28;20104;-65
2023/01/02 06:32:44;;;;;;;1.77;1.67;;;;;;;2.20;90.92;100444.38;5115036;28;20032;-66
2023/01/02 06:35:12;;;;;;;6.00;3.47;;;;;;;2.21;91.25;100446.06;5114888;28;20124;-66
2023/01/02 06:37:43;;;;;;;3.05;2.83;;;;;;;2.24;90.91;100446.22;5114921;28;20134;-66
2023/01/02 06:40:12;;;;;;;2.67;2.40;;;;;;;2.24;91.21;100446.22;5114932;28;20146;-66
2023/01/02 06:42:45;;;;;;;2.88;2.33;;;;;;;2.28;91.40;100453.09;5114986;28;20127;-66
2023/01/02 06:45:14;;;;;;;0.98;0.95;;;;;;;2.33;91.78;100446.63;5114846;28;20048;-66
2023/01/02 06:47:42;;;;;;;1.73;1.63;;;;;;;2.36;92.23;100454.31;5115048;28;20456;-66
2023/01/02 06:50:11;;;;;;;1.13;1.03;;;;;;;2.39;91.42;100456.97;5114907;28;20071;-65
2023/01/02 06:52:40;;;;;;;1.90;1.53;;;;;;;2.40;91.97;100456.16;5113830;28;20333;-66
2023/01/02 06:55:09;;;;;;;2.00;1.87;;;;;;;2.43;91.43;100455.44;5114938;28;20066;-66
2023/01/02 06:57:38;;;;;;;2.28;1.67;;;;;;;2.49;92.43;100464.16;5114848;28;20504;-66
2023/01/02 07:00:10;;;;;;;2.30;2.10;;;;;;;2.57;92.32;100467.84;5114484;28;20054;-66
2023/01/02 07:02:40;;;;;;;2.72;1.70;;;;;;;2.62;92.48;100470.56;5114585;28;20526;-66
2023/01/02 07:05:10;;;;;;;4.10;2.10;;;;;;;2.65;92.07;100470.69;5114775;28;20043;-66
2023/01/02 07:07:39;;;;;;;1.67;1.52;;;;;;;2.64;92.37;100469.84;5114401;28;20039;-66
2023/01/02 07:10:08;;;;;;;8.63;4.27;;;;;;;2.71;91.93;100471.81;5114289;28;20031;-66
2023/01/02 07:12:37;;;;;;;;;;;;;;;2.75;92.53;100477.00;5115192;28;20363;-66
2023/01/02 07:15:08;;;;;;;1.92;1.80;;;;;;;2.77;92.24;100465.31;5114689;28;19919;-66
2023/01/02 07:17:37;;;;;;;3.53;2.17;;;;;;;2.80;92.10;100456.25;5114568;28;20104;-66
2023/01/02 07:20:07;;;;;;;2.37;2.17;;;;;;;2.86;92.14;100460.66;5114221;28;20039;-65
2023/01/02 07:22:35;;;;;;;1.73;1.63;;;;;;;2.90;92.92;100462.53;5114389;28;20515;-65
2023/01/02 07:25:05;;;;;;;4.80;4.22;;;;;;;2.92;92.37;100460.94;5114167;28;20501;-65
2023/01/02 07:27:34;;;;;;;1.67;1.58;;;;;;;2.96;92.37;100467.81;5114074;28;20515;-66
2023/01/02 07:30:02;;;;;;;1.25;1.15;;;;;;;3.01;93.14;100456.28;5114140;28;20040;-65
2023/01/02 07:32:33;;;;;;;3.60;2.22;;;;;;;3.03;92.43;100464.75;5114132;28;20521;-65
2023/01/02 07:35:02;;;;;;;3.42;2.88;;;;;;;3.04;92.83;100461.44;5113891;28;20054;-65
2023/01/02 07:37:31;;;;;;;1.67;1.58;;;;;;;3.09;92.95;100467.53;5114216;28;20482;-65
2023/01/02 07:40:00;;;;;;;2.27;1.73;;;;;;;3.15;92.57;100461.09;5114320;28;20036;-65
2023/01/02 07:42:29;;;;;;;1.57;1.47;;;;;;;3.22;92.76;100449.59;5113490;28;20039;-65
2023/01/02 07:44:58;;;;;;;0.98;0.95;;;;;;;3.25;92.78;100467.38;5113931;28;20042;-65
2023/01/02 07:47:26;;;;;;;2.65;1.90;;;;;;;3.29;92.94;100464.16;5113806;28;20139;-65
2023/01/02 07:49:56;;;;;;;1.83;1.73;;;;;;;3.31;93.38;100472.69;5114093;28;20039;-65
2023/01/02 07:52:25;;;;;;;1.23;1.17;;;;;;;3.36;93.07;100466.13;5114105;28;20059;-65
2023/01/02 07:54:54;;;;;;;0.67;0.67;;;;;;;3.39;93.04;100466.25;5114205;28;20089;-65
2023/01/02 07:57:23;;;;;;;2.10;1.92;;;;;;;3.38;93.60;100449.41;5112616;28;20067;-65
2023/01/02 07:59:52;;;;;;;1.95;1.85;;;;;;;3.49;93.23;100460.78;5113678;28;20493;-65
2023/01/02 08:02:20;;;;;;;2.10;1.92;;;;;;;3.55;93.36;100463.53;5113812;28;20044;-65
2023/01/02 08:04:50;;;;;;;2.75;2.55;;;;;;;3.59;93.68;100457.84;5113689;28;20051;-65
2023/01/02 08:07:21;;;;;;;4.85;1.95;;;;;;;3.63;93.78;100457.16;5113974;28;20460;-65
2023/01/02 08:09:50;;;;;;;2.35;1.75;;;;;;;3.66;93.42;100457.28;5113921;28;20492;-66
2023/01/02 08:12:19;;;;;;;5.17;2.67;;;;;;;3.71;93.89;100459.97;5113965;28;20398;-65
2023/01/02 08:14:50;;;;;;;1.92;1.80;;;;;;;3.74;93.66;100460.94;5113991;28;20051;-66
2023/01/02 08:17:19;;;;;;;2.47;2.13;;;;;;;3.80;94.20;100466.25;5113629;28;20143;-65
2023/01/02 08:19:47;;;;;;;2.50;2.30;;;;;;;3.83;94.25;100456.25;5113629;28;20051;-66
2023/01/02 08:22:16;;;;;;;4.95;3.20;;;;;;;3.87;93.76;100455.56;5113502;28;20047;-66
2023/01/02 08:24:46;;;;;;;1.30;1.23;;;;;;;3.95;94.49;100458.38;5113540;28;20120;-66
2023/01/02 08:27:15;;;;;;;3.83;3.00;;;;;;;3.99;94.43;100456.03;5113335;28;20060;-66
2023/01/02 08:29:44;;;;;;;3.70;3.27;;;;;;;4.01;94.00;100451.91;5113713;28;20070;-65
2023/01/02 08:32:12;;;;;;;1.50;1.40;;;;;;;4.02;94.44;100451.09;5113775;28;20039;-66
2023/01/02 08:34:41;;;;;;;3.65;2.42;;;;;;;4.08;94.18;100448.78;5113697;28;20040;-66
2023/01/02 08:37:10;;;;;;;1.53;1.43;;;;;;;4.13;94.47;100440.56;5113449;28;20043;-66
2023/01/02 08:39:39;;;;;;;;;;;;;;;4.17;94.42;100439.84;5113817;28;20138;-65
2023/01/02 08:42:09;;;;;;;6.65;3.28;;;;;;;4.21;94.42;100439.16;5113392;28;19919;-65
2023/01/02 08:44:39;;;;;;;5.22;2.38;;;;;;;4.31;94.36;100446.25;5113332;28;20127;-66
2023/01/02 08:47:07;;;;;;;3.47;3.17;;;;;;;4.38;94.73;100453.25;5114701;28;20078;-66
2023/01/02 08:49:36;;;;;;;1.80;1.70;;;;;;;4.44;94.69;100438.34;5116980;28;20036;-66
2023/01/02 08:52:05;;;;;;;2.75;2.55;;;;;;;4.47;94.30;100441.81;5117006;28;20040;-66
2023/01/02 08:54:35;;;;;;;3.33;2.80;;;;;;;4.50;94.64;100441.94;5117049;28;20047;-66
2023/01/02 08:57:03;;;;;;;5.18;3.72;;;;;;;4.55;94.60;100442.09;5117230;28;20542;-66
2023/01/02 08:59:33;;;;;;;2.13;1.98;;;;;;;4.65;94.31;100449.19;5116899;28;20050;-65
2023/01/02 09:02:02;;;;;;;1.65;1.52;;;;;;;4.71;94.39;100454.44;5116868;28;20044;-66
2023/01/02 09:04:31;;;;;;;4.37;3.90;;;;;;;4.77;94.50;100454.69;5116732;28;20093;-65
2023/01/02 09:07:00;;;;;;;2.73;2.53;;;;;;;4.84;94.71;100446.50;5117069;28;20283;-65
2023/01/02 09:09:28;;;;;;;7.20;5.25;;;;;;;4.89;94.90;100450.03;5116852;28;20507;-65
2023/01/02 09:11:59;;;;;;;2.37;2.20;;;;;;;4.96;95.11;100446.91;5116993;28;20097;-65
2023/01/02 09:14:28;;;;;;;4.25;3.95;;;;;;;5.02;94.98;100439.50;5116588;28;20074;-66
2023/01/02 09:16:58;;;;;;;3.25;2.95;;;;;;;5.08;94.93;100434.66;5116868;28;20073;-65
2023/01/02 09:19:27;;;;;;;3.85;3.30;;;;;;;5.18;94.96;100436.66;5116529;28;20082;-65
2023/01/02 09:21:56;;;;;;;10.60;6.88;;;;;;;5.26;95.32;100426.81;5116052;28;20574;-66
2023/01/02 09:24:25;;;;;;;9.70;6.18;;;;;;;5.35;95.10;100433.03;5116429;28;20074;-66
2023/01/02 09:26:55;;;;;;;5.90;5.00;;;;;;;5.37;95.17;100430.56;5116230;28;20561;-66
2023/01/02 09:29:24;;;;;;;5.07;4.57;;;;;;;5.50;95.21;100421.66;5116225;28;20127;-66
2023/01/02 09:31:52;;;;;;;1.42;1.33;;;;;;;5.58;95.03;100421.09;5116443;28;20077;-66
2023/01/02 09:34:23;;;;;;;2.07;1.97;;;;;;;5.65;95.03;100424.66;5116220;28;20546;-65
2023/01/02 09:36:52;;;;;;;4.10;3.78;;;;;;;5.74;95.26;100427.47;5116157;28;20051;-65
2023/01/02 09:39:20;;;;;;;2.13;1.98;;;;;;;5.79;95.07;100421.75;5116361;28;20378;-65
2023/01/02 09:42:00;;;;;;;2.90;2.67;;;;;;;5.81;94.97;100426.84;5116377;28;20512;-65
2023/01/02 09:44:37;;;;;;;1.95;1.77;;;;;;;5.85;95.31;100426.19;5115982;28;20047;-66
2023/01/02 09:47:12;;;;;;;3.38;1.80;;;;;;;5.89;95.36;100438.09;5116250;28;20052;-65
2023/01/02 09:49:47;;;;;;;2.97;2.28;;;;;;;5.94;95.32;100426.44;5103951;28;20054;-65
2023/01/02 09:52:21;;;;;;;2.00;1.60;;;;;;;5.98;95.23;100423.19;5095464;28;20143;-65
2023/01/02 09:54:50;;;;;;;4.05;3.75;;;;;;;6.04;95.50;100413.25;5095493;28;20056;-65
2023/01/02 09:57:31;;;;;;;3.87;3.37;;;;;;;6.09;95.22;100411.69;5101238;28;20044;-65
2023/01/02 10:00:05;;;;;;;2.63;2.42;;;;;;;6.13;95.32;100405.88;5105749;28;20109;-65
2023/01/02 10:02:52;;;;;;;13.13;4.43;;;;;;;6.14;95.06;100405.09;5114343;28;20443;-66
2023/01/02 10:05:52;;;;;;;4.25;3.67;;;;;;;6.21;95.36;100393.44;5115884;28;20432;-66
2023/01/02 10:08:31;;;;;;;4.50;3.00;;;;;;;6.27;95.34;100391.94;5115076;28;20048;-66
2023/01/02 10:11:15;;;;;;;3.88;3.55;;;;;;;6.39;95.12;100391.41;5115386;28;20039;-66
2023/01/02 10:13:49;;;;;;;7.22;4.10;;;;;;;6.40;95.80;100363.56;5115418;28;20054;-66
2023/01/02 10:16:44;;;;;;;4.20;3.80;;;;;;;6.57;95.79;100372.50;5115278;28;20050;-65
2023/01/02 10:19:19;;;;;;;5.85;4.05;;;;;;;6.68;95.23;100371.09;5115644;28;20465;-66
2023/01/02 10:21:53;;;;;;;2.63;2.42;;;;;;;6.84;96.29;100356.25;5115303;28;20071;-66
2023/01/02 10:24:32;;;;;;;2.88;2.60;;;;;;;6.98;95.75;100358.28;5115053;28;20074;-67
2023/01/02 10:27:04;;;;;;;3.55;1.80;;;;;;;7.11;96.47;100351.81;5114483;28;20044;-66
2023/01/02 10:29:39;;;;;;;2.83;2.58;;;;;;;7.23;96.50;100357.19;5115073;28;20047;-66
2023/01/02 10:32:15;;;;;;;2.00;1.67;;;;;;;7.37;95.93;100358.38;5115021;28;20046;-66
2023/01/02 10:34:54;;;;;;;2.05;1.80;;;;;;;7.46;96.42;100345.03;5115124;28;20054;-66
2023/01/02 10:37:26;;;;;;;;;;;;;;;7.55;96.26;100353.72;5115726;28;20044;-67
2023/01/02 10:39:55;;;;;;;1.33;1.25;;;;;;;7.62;96.71;100354.69;5115260;28;19920;-66
2023/01/02 10:42:24;;;;;;;1.98;1.88;;;;;;;7.71;96.93;100353.22;5115256;28;20108;-66
2023/01/02 10:44:53;;;;;;;4.18;3.10;;;;;;;7.79;97.08;100349.16;5114849;28;20050;-66
2023/01/02 10:47:32;;;;;;;2.20;2.10;;;;;;;7.84;96.48;100345.03;5114793;28;20063;-66
2023/01/02 10:50:03;;;;;;;2.83;2.38;;;;;;;7.88;97.56;100346.81;5114977;28;20497;-66
2023/01/02 10:52:39;;;;;;;1.58;1.48;;;;;;;7.94;97.12;100341.84;5114729;28;20051;-66
2023/01/02 10:55:08;;;;;;;2.65;2.42;;;;;;;8.05;97.46;100334.44;5115767;28;20389;-66
2023/01/02 10:57:41;;;;;;;4.63;3.07;;;;;;;8.11;97.10;100335.41;5114591;28;20200;-66
2023/01/02 11:00:27;;;;;;;2.90;2.70;;;;;;;8.17;97.00;100333.81;5114669;28;20706;-66
2023/01/02 11:02:58;;;;;;;3.33;1.77;;;;;;;8.26;97.73;100334.00;5114583;27;20564;-66
2023/01/02 11:05:30;;;;;;;4.88;3.15;;;;;;;8.33;97.24;100320.59;5114520;28;20043;-66
2023/01/02 11:08:11;;;;;;;3.47;2.63;;;;;;;8.38;98.14;100329.16;5114449;28;20096;-66
2023/01/02 11:10:40;;;;;;;3.15;2.85;;;;;;;8.46;97.74;100332.72;5113948;28;20460;-66
2023/01/02 11:13:11;;;;;;;1.97;1.77;;;;;;;8.50;98.01;100326.84;5114728;28;20066;-66
2023/01/02 11:15:51;;;;;;;1.10;1.02;;;;;;;8.54;98.31;100310.81;5114626;28;20044;-65
2023/01/02 11:18:21;;;;;;;;;;;;;;;8.58;97.97;100304.94;5114746;28;20054;-66
2023/01/02 11:20:52;;;;;;;2.20;1.58;;;;;;;8.60;98.27;100308.38;5114630;28;19950;-65
2023/01/02 11:23:26;;;;;;;2.63;2.42;;;;;;;8.65;98.24;100311.84;5114389;28;20566;-65
2023/01/02 11:25:55;;;;;;;3.92;2.95;;;;;;;8.66;98.76;100300.84;5114511;28;20043;-66
2023/01/02 11:28:27;;;;;;;2.33;2.13;;;;;;;8.68;98.26;100309.38;5113963;28;20485;-66
2023/01/02 11:31:03;;;;;;;3.92;2.08;;;;;;;8.72;98.98;100300.94;5114115;28;20047;-66
2023/01/02 11:33:34;;;;;;;2.97;2.25;;;;;;;8.73;97.98;100292.50;5114049;28;20051;-65
2023/01/02 11:36:15;;;;;;;3.58;2.25;;;;;;;8.78;99.03;100291.72;5114359;28;20066;-65
2023/01/02 11:38:46;;;;;;;;;;;;;;;8.80;98.35;100284.13;5114520;28;20047;-65
2023/01/02 11:43:47;;;;;;;3.63;2.40;;;;;;;8.84;98.33;100285.88;5113988;28;19920;-65
2023/01/02 11:44:22;;;;;;;2.97;2.78;;;;;;;8.90;98.74;100275.78;5113991;28;20130;-65
2023/01/02 11:46:53;;;;;;;4.45;1.88;;;;;;;8.90;99.26;100278.31;5113874;28;20097;-66
2023/01/02 11:49:25;;;;;;;2.40;2.20;;;;;;;8.86;98.78;100274.03;5114193;28;20040;-65
2023/01/02 11:51:59;;;;;;;1.73;1.63;;;;;;;8.84;99.13;100275.69;5114121;28;20073;-66
2023/01/02 11:54:40;;;;;;;7.00;3.00;;;;;;;8.82;98.85;100274.81;5113836;28;20096;-65
2023/01/02 11:57:13;;;;;;;3.95;2.78;;;;;;;8.80;99.49;100276.50;5113919;28;20113;-66
2023/01/02 11:59:50;;;;;;;3.05;2.78;;;;;;;8.79;98.65;100269.66;5113865;28;20051;-66